PWSweather.com
Personal Weather Stations
Station Observations
KCOGRAND2
Redlands, Southcamp Road & Dakota Circle, Grand Junction, CO 81507

Redlands, Southcamp Road & Dakota CircleGrand Junction, CO 81507

Lat: 39.055, Lon: -108.637

Elevation: 4870

Station Type: RadioShack WX200

High Low Average
Temperature 52.7°F11.5°F 25.5°F-3.6°F 35.4°F1.9°F
Dew Point 28.0°F-2.2°F -12.8°F-24.9°F 6.8°F-14.0°F
Winds 23.0 mph E37.0 mph E Calm Calm 9.6 mph 15.4 mph
Wind Gusts 37.6 mph60.5 mph -- 16.6 mph26.7 mph
Humidity 76% 11% 38%
Pressure 24.86 in841.90 in 24.60 in833.10 in -
Precipitation 0.00 in0.00 in - -
Hour Temp Dew Point Humidity Winds Wind Gusts Pressure Precip Precip Rate Daily Precip Total
12:04 AM 52.7°F11.5°C -5537.2°C - 10.0 mph NE16.1 kmh NE 19.9 mph32.0 kmh 24.60 in833.1 mb 0.00 in0.0 mm 0.00 in0.0 mm 0.00 in0.0 mm
12:09 AM 52.7°F11.5°C -5537.2°C - 11.0 mph ENE17.7 kmh ENE 19.5 mph31.4 kmh 24.60 in833.1 mb 0.00 in0.0 mm 0.00 in0.0 mm 0.00 in0.0 mm
12:14 AM 52.3°F11.3°C -5537.2°C - 9.0 mph ENE14.5 kmh ENE 12.5 mph20.1 kmh 24.60 in833.1 mb 0.00 in0.0 mm 0.00 in0.0 mm 0.00 in0.0 mm
12:19 AM 52.3°F11.3°C -5537.2°C - 8.0 mph E12.9 kmh E 13.9 mph22.4 kmh 24.60 in833.1 mb 0.00 in0.0 mm 0.00 in0.0 mm 0.00 in0.0 mm
12:24 AM 51.8°F11.0°C -5537.2°C - 6.0 mph E9.7 kmh E 9.6 mph15.4 kmh 24.60 in833.1 mb 0.00 in0.0 mm 0.00 in0.0 mm 0.00 in0.0 mm
12:29 AM 51.6°F10.9°C -5537.2°C - 5.0 mph E8.0 kmh E 7.8 mph12.6 kmh 24.60 in833.1 mb 0.00 in0.0 mm 0.00 in0.0 mm 0.00 in0.0 mm
12:34 AM 50.5°F10.3°C -5537.2°C - 6.0 mph ESE9.7 kmh ESE 12.5 mph20.1 kmh 24.60 in833.1 mb 0.00 in0.0 mm 0.00 in0.0 mm 0.00 in0.0 mm
12:39 AM 50.2°F10.1°C -5537.2°C - 8.0 mph SE12.9 kmh SE 12.5 mph20.1 kmh 24.60 in833.1 mb 0.00 in0.0 mm 0.00 in0.0 mm 0.00 in0.0 mm
12:44 AM 50.0°F10.0°C -5537.2°C - 8.0 mph SE12.9 kmh SE 11.2 mph18.0 kmh 24.60 in833.1 mb 0.00 in0.0 mm 0.00 in0.0 mm 0.00 in0.0 mm
12:49 AM 49.5°F9.7°C -2.7°F-19.3°C 11% 9.0 mph ESE14.5 kmh ESE 16.3 mph26.2 kmh 24.60 in833.1 mb 0.00 in0.0 mm 0.00 in0.0 mm 0.00 in0.0 mm
12:54 AM 48.9°F9.4°C -3.3°F-19.6°C 11% 10.0 mph E16.1 kmh E 17.2 mph27.7 kmh 24.60 in833.1 mb 0.00 in0.0 mm 0.00 in0.0 mm 0.00 in0.0 mm
12:59 AM 47.3°F8.5°C 14.2°F-9.9°C 26% 12.0 mph ESE19.3 kmh ESE 22.8 mph36.7 kmh 24.60 in833.1 mb 0.00 in0.0 mm 0.00 in0.0 mm 0.00 in0.0 mm
01:04 AM 46.4°F8.0°C 18.1°F-7.7°C 32% 15.0 mph ESE24.1 kmh ESE 25.7 mph41.4 kmh 24.60 in833.1 mb 0.00 in0.0 mm 0.00 in0.0 mm 0.00 in0.0 mm
01:09 AM 45.3°F7.4°C 20.7°F-6.3°C 37% 16.0 mph ESE25.7 kmh ESE 30.0 mph48.3 kmh 24.60 in833.1 mb 0.00 in0.0 mm 0.00 in0.0 mm 0.00 in0.0 mm
01:14 AM 44.1°F6.7°C 21.4°F-5.9°C 40% 16.0 mph ESE25.7 kmh ESE 22.4 mph36.0 kmh 24.60 in833.1 mb 0.00 in0.0 mm 0.00 in0.0 mm 0.00 in0.0 mm
01:19 AM 43.3°F6.3°C 22.8°F-5.1°C 44% 15.0 mph E24.1 kmh E 21.9 mph35.2 kmh 24.63 in834.1 mb 0.00 in0.0 mm 0.00 in0.0 mm 0.00 in0.0 mm
01:25 AM 42.3°F5.7°C 24.4°F-4.2°C 49% 13.0 mph E20.9 kmh E 24.2 mph38.9 kmh 24.63 in834.1 mb 0.00 in0.0 mm 0.00 in0.0 mm 0.00 in0.0 mm
01:30 AM 41.5°F5.3°C 25.7°F-3.5°C 53% 12.0 mph E19.3 kmh E 18.6 mph29.9 kmh 24.63 in834.1 mb 0.00 in0.0 mm 0.00 in0.0 mm 0.00 in0.0 mm
01:35 AM 41.0°F5.0°C 27.0°F-2.8°C 57% 11.0 mph E17.7 kmh E 15.9 mph25.6 kmh 24.63 in834.1 mb 0.00 in0.0 mm 0.00 in0.0 mm 0.00 in0.0 mm
01:40 AM 40.6°F4.8°C 27.5°F-2.5°C 59% 11.0 mph E17.7 kmh E 17.2 mph27.7 kmh 24.63 in834.1 mb 0.00 in0.0 mm 0.00 in0.0 mm 0.00 in0.0 mm
01:45 AM 40.5°F4.7°C 27.3°F-2.6°C 59% 11.0 mph E17.7 kmh E 23.3 mph37.5 kmh 24.63 in834.1 mb 0.00 in0.0 mm 0.00 in0.0 mm 0.00 in0.0 mm
01:50 AM 40.3°F4.6°C 27.5°F-2.5°C 60% 11.0 mph E17.7 kmh E 17.7 mph28.5 kmh 24.63 in834.1 mb 0.00 in0.0 mm 0.00 in0.0 mm 0.00 in0.0 mm
01:55 AM 40.3°F4.6°C 27.5°F-2.5°C 60% 10.0 mph E16.1 kmh E 15.9 mph25.6 kmh 24.63 in834.1 mb 0.00 in0.0 mm 0.00 in0.0 mm 0.00 in0.0 mm
02:00 AM 40.3°F4.6°C 27.5°F-2.5°C 60% 11.0 mph E17.7 kmh E 21.0 mph33.8 kmh 24.63 in834.1 mb 0.00 in0.0 mm 0.00 in0.0 mm 0.00 in0.0 mm
02:05 AM 39.9°F4.4°C 27.5°F-2.5°C 61% 12.0 mph E19.3 kmh E 20.6 mph33.2 kmh 24.63 in834.1 mb 0.00 in0.0 mm 0.00 in0.0 mm 0.00 in0.0 mm
02:10 AM 40.1°F4.5°C 27.0°F-2.8°C 59% 12.0 mph E19.3 kmh E 24.8 mph39.9 kmh 24.63 in834.1 mb 0.00 in0.0 mm 0.00 in0.0 mm 0.00 in0.0 mm
02:15 AM 40.1°F4.5°C 27.0°F-2.8°C 59% 12.0 mph ESE19.3 kmh ESE 18.1 mph29.1 kmh 24.63 in834.1 mb 0.00 in0.0 mm 0.00 in0.0 mm 0.00 in0.0 mm
02:20 AM 39.7°F4.3°C 27.0°F-2.8°C 60% 12.0 mph ESE19.3 kmh ESE 17.7 mph28.5 kmh 24.63 in834.1 mb 0.00 in0.0 mm 0.00 in0.0 mm 0.00 in0.0 mm
02:25 AM 39.2°F4.0°C 28.0°F-2.2°C 64% 11.0 mph E17.7 kmh E 19.5 mph31.4 kmh 24.63 in834.1 mb 0.00 in0.0 mm 0.00 in0.0 mm 0.00 in0.0 mm
02:30 AM 38.8°F3.8°C 28.0°F-2.2°C 65% 10.0 mph E16.1 kmh E 19.5 mph31.4 kmh 24.63 in834.1 mb 0.00 in0.0 mm 0.00 in0.0 mm 0.00 in0.0 mm
02:35 AM 38.7°F3.7°C 27.9°F-2.3°C 65% 12.0 mph E19.3 kmh E 19.9 mph32.0 kmh 24.63 in834.1 mb 0.00 in0.0 mm 0.00 in0.0 mm 0.00 in0.0 mm
02:40 AM 38.5°F3.6°C 28.0°F-2.2°C 66% 11.0 mph ESE17.7 kmh ESE 19.0 mph30.6 kmh 24.63 in834.1 mb 0.00 in0.0 mm 0.00 in0.0 mm 0.00 in0.0 mm
02:45 AM 38.3°F3.5°C 27.1°F-2.7°C 64% 11.0 mph SE17.7 kmh SE 19.0 mph30.6 kmh 24.63 in834.1 mb 0.00 in0.0 mm 0.00 in0.0 mm 0.00 in0.0 mm
02:50 AM 37.9°F3.3°C 26.8°F-2.9°C 64% 13.0 mph ESE20.9 kmh ESE 23.3 mph37.5 kmh 24.63 in834.1 mb 0.00 in0.0 mm 0.00 in0.0 mm 0.00 in0.0 mm
02:55 AM 38.1°F3.4°C 24.3°F-4.3°C 57% 14.0 mph ESE22.5 kmh ESE 25.3 mph40.7 kmh 24.63 in834.1 mb 0.00 in0.0 mm 0.00 in0.0 mm 0.00 in0.0 mm
03:00 AM 37.6°F3.1°C 23.7°F-4.6°C 57% 16.0 mph ESE25.7 kmh ESE 24.4 mph39.3 kmh 24.63 in834.1 mb 0.00 in0.0 mm 0.00 in0.0 mm 0.00 in0.0 mm
03:05 AM 37.6°F3.1°C 23.7°F-4.6°C 57% 16.0 mph ESE25.7 kmh ESE 29.1 mph46.8 kmh 24.60 in833.1 mb 0.00 in0.0 mm 0.00 in0.0 mm 0.00 in0.0 mm
03:10 AM 37.6°F3.1°C 23.7°F-4.6°C 57% 15.0 mph ESE24.1 kmh ESE 24.2 mph38.9 kmh 24.60 in833.1 mb 0.00 in0.0 mm 0.00 in0.0 mm 0.00 in0.0 mm
03:15 AM 37.6°F3.1°C 23.4°F-4.8°C 56% 14.0 mph E22.5 kmh E 23.7 mph38.1 kmh 24.60 in833.1 mb 0.00 in0.0 mm 0.00 in0.0 mm 0.00 in0.0 mm
03:20 AM 37.9°F3.3°C 22.3°F-5.4°C 53% 16.0 mph E25.7 kmh E 29.1 mph46.8 kmh 24.60 in833.1 mb 0.00 in0.0 mm 0.00 in0.0 mm 0.00 in0.0 mm
03:25 AM 37.9°F3.3°C 22.3°F-5.4°C 53% 13.0 mph ESE20.9 kmh ESE 17.2 mph27.7 kmh 24.60 in833.1 mb 0.00 in0.0 mm 0.00 in0.0 mm 0.00 in0.0 mm
03:30 AM 37.8°F3.2°C 22.1°F-5.5°C 53% 12.0 mph E19.3 kmh E 19.5 mph31.4 kmh 24.60 in833.1 mb 0.00 in0.0 mm 0.00 in0.0 mm 0.00 in0.0 mm
03:35 AM 37.6°F3.1°C 21.6°F-5.8°C 52% 12.0 mph ESE19.3 kmh ESE 21.9 mph35.2 kmh 24.63 in834.1 mb 0.00 in0.0 mm 0.00 in0.0 mm 0.00 in0.0 mm
03:40 AM 37.4°F3.0°C 21.9°F-5.6°C 53% 12.0 mph ESE19.3 kmh ESE 21.5 mph34.6 kmh 24.63 in834.1 mb 0.00 in0.0 mm 0.00 in0.0 mm 0.00 in0.0 mm
03:45 AM 37.6°F3.1°C 20.7°F-6.3°C 50% 12.0 mph ESE19.3 kmh ESE 19.0 mph30.6 kmh 24.63 in834.1 mb 0.00 in0.0 mm 0.00 in0.0 mm 0.00 in0.0 mm
03:50 AM 37.6°F3.1°C 19.8°F-6.8°C 48% 11.0 mph ESE17.7 kmh ESE 17.2 mph27.7 kmh 24.63 in834.1 mb 0.00 in0.0 mm 0.00 in0.0 mm 0.00 in0.0 mm
03:55 AM 36.9°F2.7°C 20.5°F-6.4°C 51% 10.0 mph SE16.1 kmh SE 17.2 mph27.7 kmh 24.63 in834.1 mb 0.00 in0.0 mm 0.00 in0.0 mm 0.00 in0.0 mm
04:00 AM 36.9°F2.7°C 20.5°F-6.4°C 51% 9.0 mph SE14.5 kmh SE 16.3 mph26.2 kmh 24.63 in834.1 mb 0.00 in0.0 mm 0.00 in0.0 mm 0.00 in0.0 mm
04:05 AM 36.9°F2.7°C 19.6°F-6.9°C 49% 7.0 mph ESE11.3 kmh ESE 14.8 mph23.8 kmh 24.63 in834.1 mb 0.00 in0.0 mm 0.00 in0.0 mm 0.00 in0.0 mm
04:10 AM 36.7°F2.6°C 19.8°F-6.8°C 50% 6.0 mph SE9.7 kmh SE 13.0 mph20.9 kmh 24.63 in834.1 mb 0.00 in0.0 mm 0.00 in0.0 mm 0.00 in0.0 mm
04:15 AM 36.5°F2.5°C 19.2°F-7.1°C 49% 6.0 mph SE9.7 kmh SE 12.1 mph19.5 kmh 24.63 in834.1 mb 0.00 in0.0 mm 0.00 in0.0 mm 0.00 in0.0 mm
04:20 AM 36.5°F2.5°C 18.1°F-7.7°C 47% 7.0 mph SE11.3 kmh SE 14.3 mph23.0 kmh 24.60 in833.1 mb 0.00 in0.0 mm 0.00 in0.0 mm 0.00 in0.0 mm
04:25 AM 36.7°F2.6°C 16.9°F-8.4°C 44% 10.0 mph ESE16.1 kmh ESE 17.7 mph28.5 kmh 24.60 in833.1 mb 0.00 in0.0 mm 0.00 in0.0 mm 0.00 in0.0 mm
04:30 AM 36.7°F2.6°C 16.9°F-8.4°C 44% 11.0 mph ESE17.7 kmh ESE 20.6 mph33.2 kmh 24.60 in833.1 mb 0.00 in0.0 mm 0.00 in0.0 mm 0.00 in0.0 mm
04:35 AM 36.3°F2.4°C 15.4°F-9.2°C 42% 12.0 mph ESE19.3 kmh ESE 22.8 mph36.7 kmh 24.63 in834.1 mb 0.00 in0.0 mm 0.00 in0.0 mm 0.00 in0.0 mm
04:40 AM 36.3°F2.4°C 14.9°F-9.5°C 41% 14.0 mph E22.5 kmh E 22.4 mph36.0 kmh 24.63 in834.1 mb 0.00 in0.0 mm 0.00 in0.0 mm 0.00 in0.0 mm
04:45 AM 35.8°F2.1°C 14.9°F-9.5°C 42% 13.0 mph E20.9 kmh E 18.1 mph29.1 kmh 24.63 in834.1 mb 0.00 in0.0 mm 0.00 in0.0 mm 0.00 in0.0 mm
04:50 AM 35.6°F2.0°C 14.7°F-9.6°C 42% 12.0 mph E19.3 kmh E 19.5 mph31.4 kmh 24.63 in834.1 mb 0.00 in0.0 mm 0.00 in0.0 mm 0.00 in0.0 mm
04:55 AM 35.1°F1.7°C 14.9°F-9.5°C 43% 12.0 mph E19.3 kmh E 26.2 mph42.2 kmh 24.63 in834.1 mb 0.00 in0.0 mm 0.00 in0.0 mm 0.00 in0.0 mm
05:00 AM 34.9°F1.6°C 14.2°F-9.9°C 42% 13.0 mph ESE20.9 kmh ESE 21.0 mph33.8 kmh 24.63 in834.1 mb 0.00 in0.0 mm 0.00 in0.0 mm 0.00 in0.0 mm
05:05 AM 34.9°F1.6°C 14.7°F-9.6°C 43% 13.0 mph ESE20.9 kmh ESE 25.3 mph40.7 kmh 24.63 in834.1 mb 0.00 in0.0 mm 0.00 in0.0 mm 0.00 in0.0 mm
05:10 AM 34.7°F1.5°C 14.0°F-10.0°C 42% 13.0 mph E20.9 kmh E 20.6 mph33.2 kmh 24.63 in834.1 mb 0.00 in0.0 mm 0.00 in0.0 mm 0.00 in0.0 mm
05:15 AM 34.7°F1.5°C 13.5°F-10.3°C 41% 14.0 mph E22.5 kmh E 23.7 mph38.1 kmh 24.63 in834.1 mb 0.00 in0.0 mm 0.00 in0.0 mm 0.00 in0.0 mm
05:20 AM 34.9°F1.6°C 13.1°F-10.5°C 40% 16.0 mph E25.7 kmh E 27.1 mph43.6 kmh 24.63 in834.1 mb 0.00 in0.0 mm 0.00 in0.0 mm 0.00 in0.0 mm
05:25 AM 34.7°F1.5°C 12.4°F-10.9°C 39% 18.0 mph E29.0 kmh E 27.5 mph44.3 kmh 24.63 in834.1 mb 0.00 in0.0 mm 0.00 in0.0 mm 0.00 in0.0 mm
05:30 AM 34.9°F1.6°C 10.6°F-11.9°C 36% 18.0 mph E29.0 kmh E 27.1 mph43.6 kmh 24.63 in834.1 mb 0.00 in0.0 mm 0.00 in0.0 mm 0.00 in0.0 mm
05:35 AM 34.9°F1.6°C 9.3°F-12.6°C 34% 19.0 mph E30.6 kmh E 28.6 mph46.0 kmh 24.63 in834.1 mb 0.00 in0.0 mm 0.00 in0.0 mm 0.00 in0.0 mm
05:40 AM 34.7°F1.5°C 9.9°F-12.3°C 35% 20.0 mph E32.2 kmh E 28.0 mph45.1 kmh 24.63 in834.1 mb 0.00 in0.0 mm 0.00 in0.0 mm 0.00 in0.0 mm
05:45 AM 34.5°F1.4°C 9.1°F-12.7°C 34% 18.0 mph E29.0 kmh E 25.7 mph41.4 kmh 24.63 in834.1 mb 0.00 in0.0 mm 0.00 in0.0 mm 0.00 in0.0 mm
05:50 AM 34.9°F1.6°C 8.1°F-13.3°C 32% 17.0 mph E27.4 kmh E 25.7 mph41.4 kmh 24.63 in834.1 mb 0.00 in0.0 mm 0.00 in0.0 mm 0.00 in0.0 mm
05:55 AM 34.5°F1.4°C 8.4°F-13.1°C 33% 14.0 mph ESE22.5 kmh ESE 18.6 mph29.9 kmh 24.63 in834.1 mb 0.00 in0.0 mm 0.00 in0.0 mm 0.00 in0.0 mm
06:00 AM 34.0°F1.1°C 11.7°F-11.3°C 39% 10.0 mph SSE16.1 kmh SSE 15.2 mph24.5 kmh 24.63 in834.1 mb 0.00 in0.0 mm 0.00 in0.0 mm 0.00 in0.0 mm
06:05 AM 33.8°F1.0°C 11.5°F-11.4°C 39% 8.0 mph SSW12.9 kmh SSW 15.2 mph24.5 kmh 24.66 in835.1 mb 0.00 in0.0 mm 0.00 in0.0 mm 0.00 in0.0 mm
06:10 AM 34.3°F1.3°C 9.5°F-12.5°C 35% 8.0 mph SW12.9 kmh SW 13.4 mph21.6 kmh 24.66 in835.1 mb 0.00 in0.0 mm 0.00 in0.0 mm 0.00 in0.0 mm
06:15 AM 34.0°F1.1°C 11.1°F-11.6°C 38% 8.0 mph SW12.9 kmh SW 13.4 mph21.6 kmh 24.66 in835.1 mb 0.00 in0.0 mm 0.00 in0.0 mm 0.00 in0.0 mm
06:20 AM 33.8°F1.0°C 12.0°F-11.1°C 40% 6.0 mph SW9.7 kmh SW 13.4 mph21.6 kmh 24.66 in835.1 mb 0.00 in0.0 mm 0.00 in0.0 mm 0.00 in0.0 mm
06:25 AM 33.8°F1.0°C 11.5°F-11.4°C 39% 7.0 mph SW11.3 kmh SW 13.9 mph22.4 kmh 24.66 in835.1 mb 0.00 in0.0 mm 0.00 in0.0 mm 0.00 in0.0 mm
06:30 AM 33.8°F1.0°C 11.5°F-11.4°C 39% 6.0 mph SW9.7 kmh SW 8.3 mph13.4 kmh 24.66 in835.1 mb 0.00 in0.0 mm 0.00 in0.0 mm 0.00 in0.0 mm
06:35 AM 33.6°F0.9°C 11.8°F-11.2°C 40% 5.0 mph SSW8.0 kmh SSW 10.5 mph16.9 kmh 24.66 in835.1 mb 0.00 in0.0 mm 0.00 in0.0 mm 0.00 in0.0 mm
06:40 AM 33.3°F0.7°C 11.7°F-11.3°C 40% 4.0 mph SSW6.4 kmh SSW 4.9 mph7.9 kmh 24.66 in835.1 mb 0.00 in0.0 mm 0.00 in0.0 mm 0.00 in0.0 mm
06:45 AM 33.3°F0.7°C 11.7°F-11.3°C 40% 3.0 mph SW4.8 kmh SW 12.5 mph20.1 kmh 24.66 in835.1 mb 0.00 in0.0 mm 0.00 in0.0 mm 0.00 in0.0 mm
06:50 AM 33.8°F1.0°C 10.9°F-11.7°C 38% 6.0 mph S9.7 kmh S 13.4 mph21.6 kmh 24.66 in835.1 mb 0.00 in0.0 mm 0.00 in0.0 mm 0.00 in0.0 mm
06:55 AM 33.8°F1.0°C 10.4°F-12.0°C 37% 9.0 mph SE14.5 kmh SE 17.2 mph27.7 kmh 24.66 in835.1 mb 0.00 in0.0 mm 0.00 in0.0 mm 0.00 in0.0 mm
07:00 AM 33.8°F1.0°C 9.7°F-12.4°C 36% 9.0 mph SE14.5 kmh SE 13.4 mph21.6 kmh 24.66 in835.1 mb 0.00 in0.0 mm 0.00 in0.0 mm 0.00 in0.0 mm
07:05 AM 33.8°F1.0°C 8.4°F-13.1°C 34% 8.0 mph SE12.9 kmh SE 15.4 mph24.8 kmh 24.66 in835.1 mb 0.00 in0.0 mm 0.00 in0.0 mm 0.00 in0.0 mm
07:10 AM 34.0°F1.1°C 7.3°F-13.7°C 32% 9.0 mph ESE14.5 kmh ESE 20.1 mph32.3 kmh 24.66 in835.1 mb 0.00 in0.0 mm 0.00 in0.0 mm 0.00 in0.0 mm
07:15 AM 34.0°F1.1°C 5.9°F-14.5°C 30% 10.0 mph E16.1 kmh E 19.0 mph30.6 kmh 24.66 in835.1 mb 0.00 in0.0 mm 0.00 in0.0 mm 0.00 in0.0 mm
07:20 AM 34.0°F1.1°C 5.9°F-14.5°C 30% 11.0 mph ESE17.7 kmh ESE 16.3 mph26.2 kmh 24.66 in835.1 mb 0.00 in0.0 mm 0.00 in0.0 mm 0.00 in0.0 mm
07:25 AM 34.2°F1.2°C 3.7°F-15.7°C 27% 11.0 mph E17.7 kmh E 21.0 mph33.8 kmh 24.66 in835.1 mb 0.00 in0.0 mm 0.00 in0.0 mm 0.00 in0.0 mm
07:30 AM 34.0°F1.1°C 3.6°F-15.8°C 27% 11.0 mph E17.7 kmh E 17.7 mph28.5 kmh 24.66 in835.1 mb 0.00 in0.0 mm 0.00 in0.0 mm 0.00 in0.0 mm
07:35 AM 34.0°F1.1°C 3.6°F-15.8°C 27% 9.0 mph E14.5 kmh E 16.3 mph26.2 kmh 24.66 in835.1 mb 0.00 in0.0 mm 0.00 in0.0 mm 0.00 in0.0 mm
07:40 AM 34.0°F1.1°C 3.6°F-15.8°C 27% 8.0 mph E12.9 kmh E 20.1 mph32.3 kmh 24.66 in835.1 mb 0.00 in0.0 mm 0.00 in0.0 mm 0.00 in0.0 mm
07:45 AM 34.0°F1.1°C 5.9°F-14.5°C 30% 9.0 mph ESE14.5 kmh ESE 19.9 mph32.0 kmh 24.69 in836.1 mb 0.00 in0.0 mm 0.00 in0.0 mm 0.00 in0.0 mm
07:50 AM 34.2°F1.2°C 6.1°F-14.4°C 30% 10.0 mph ESE16.1 kmh ESE 21.5 mph34.6 kmh 24.69 in836.1 mb 0.00 in0.0 mm 0.00 in0.0 mm 0.00 in0.0 mm
07:55 AM 34.2°F1.2°C 6.1°F-14.4°C 30% 11.0 mph E17.7 kmh E 20.6 mph33.2 kmh 24.69 in836.1 mb 0.00 in0.0 mm 0.00 in0.0 mm 0.00 in0.0 mm
08:00 AM 34.3°F1.3°C 6.1°F-14.4°C 30% 9.0 mph E14.5 kmh E 14.8 mph23.8 kmh 24.69 in836.1 mb 0.00 in0.0 mm 0.00 in0.0 mm 0.00 in0.0 mm
08:05 AM 34.2°F1.2°C 6.8°F-14.0°C 31% 9.0 mph SW14.5 kmh SW 18.1 mph29.1 kmh 24.69 in836.1 mb 0.00 in0.0 mm 0.00 in0.0 mm 0.00 in0.0 mm
08:10 AM 34.2°F1.2°C 6.1°F-14.4°C 30% 9.0 mph WSW14.5 kmh WSW 10.5 mph16.9 kmh 24.69 in836.1 mb 0.00 in0.0 mm 0.00 in0.0 mm 0.00 in0.0 mm
08:15 AM 34.3°F1.3°C 6.1°F-14.4°C 30% 7.0 mph WNW11.3 kmh WNW 15.2 mph24.5 kmh 24.69 in836.1 mb 0.00 in0.0 mm 0.00 in0.0 mm 0.00 in0.0 mm
08:20 AM 34.5°F1.4°C 6.3°F-14.3°C 30% 9.0 mph NE14.5 kmh NE 17.2 mph27.7 kmh 24.69 in836.1 mb 0.00 in0.0 mm 0.00 in0.0 mm 0.00 in0.0 mm
08:25 AM 34.5°F1.4°C 6.3°F-14.3°C 30% 8.0 mph ENE12.9 kmh ENE 13.9 mph22.4 kmh 24.69 in836.1 mb 0.00 in0.0 mm 0.00 in0.0 mm 0.00 in0.0 mm
08:30 AM 34.9°F1.6°C 6.6°F-14.1°C 30% 7.0 mph SW11.3 kmh SW 18.1 mph29.1 kmh 24.69 in836.1 mb 0.00 in0.0 mm 0.00 in0.0 mm 0.00 in0.0 mm
08:35 AM 34.9°F1.6°C 5.9°F-14.5°C 29% 8.0 mph SE12.9 kmh SE 21.0 mph33.8 kmh 24.69 in836.1 mb 0.00 in0.0 mm 0.00 in0.0 mm 0.00 in0.0 mm
08:41 AM 34.7°F1.5°C 4.1°F-15.5°C 27% 9.0 mph E14.5 kmh E 16.8 mph27.0 kmh 24.69 in836.1 mb 0.00 in0.0 mm 0.00 in0.0 mm 0.00 in0.0 mm
08:46 AM 34.5°F1.4°C 4.1°F-15.5°C 27% 8.0 mph NE12.9 kmh NE 12.1 mph19.5 kmh 24.69 in836.1 mb 0.00 in0.0 mm 0.00 in0.0 mm 0.00 in0.0 mm
08:51 AM 34.5°F1.4°C 2.3°F-16.5°C 25% 7.0 mph NNW11.3 kmh NNW 13.9 mph22.4 kmh 24.69 in836.1 mb 0.00 in0.0 mm 0.00 in0.0 mm 0.00 in0.0 mm
08:56 AM 34.7°F1.5°C 2.5°F-16.4°C 25% 8.0 mph WNW12.9 kmh WNW 17.7 mph28.5 kmh 24.69 in836.1 mb 0.00 in0.0 mm 0.00 in0.0 mm 0.00 in0.0 mm
09:01 AM 35.4°F1.9°C 0.3°F-17.6°C 22% 11.0 mph E17.7 kmh E 37.6 mph60.5 kmh 24.69 in836.1 mb 0.00 in0.0 mm 0.00 in0.0 mm 0.00 in0.0 mm
09:06 AM 35.8°F2.1°C -4.7°F-20.4°C 17% 13.0 mph E20.9 kmh E 23.3 mph37.5 kmh 24.69 in836.1 mb 0.00 in0.0 mm 0.00 in0.0 mm 0.00 in0.0 mm
09:11 AM 36.1°F2.3°C -4.4°F-20.2°C 17% 13.0 mph E20.9 kmh E 25.7 mph41.4 kmh 24.69 in836.1 mb 0.00 in0.0 mm 0.00 in0.0 mm 0.00 in0.0 mm
09:16 AM 35.4°F1.9°C -9.0°F-22.8°C 14% 15.0 mph E24.1 kmh E 30.4 mph48.9 kmh 24.72 in837.1 mb 0.00 in0.0 mm 0.00 in0.0 mm 0.00 in0.0 mm
09:21 AM 36.1°F2.3°C -8.3°F-22.4°C 14% 15.0 mph E24.1 kmh E 24.4 mph39.3 kmh 24.72 in837.1 mb 0.00 in0.0 mm 0.00 in0.0 mm 0.00 in0.0 mm
09:26 AM 36.3°F2.4°C -8.3°F-22.4°C 14% 18.0 mph E29.0 kmh E 28.4 mph45.7 kmh 24.72 in837.1 mb 0.00 in0.0 mm 0.00 in0.0 mm 0.00 in0.0 mm
09:31 AM 36.0°F2.2°C -11.6°F-24.2°C 12% 20.0 mph E32.2 kmh E 30.9 mph49.7 kmh 24.69 in836.1 mb 0.00 in0.0 mm 0.00 in0.0 mm 0.00 in0.0 mm
09:36 AM 36.3°F2.4°C -11.4°F-24.1°C 12% 21.0 mph E33.8 kmh E 31.8 mph51.2 kmh 24.69 in836.1 mb 0.00 in0.0 mm 0.00 in0.0 mm 0.00 in0.0 mm
09:41 AM 36.7°F2.6°C -12.8°F-24.9°C 11% 20.0 mph E32.2 kmh E 27.1 mph43.6 kmh 24.69 in836.1 mb 0.00 in0.0 mm 0.00 in0.0 mm 0.00 in0.0 mm
09:46 AM 37.0°F2.8°C -7.6°F-22.0°C 14% 18.0 mph E29.0 kmh E 31.8 mph51.2 kmh 24.72 in837.1 mb 0.00 in0.0 mm 0.00 in0.0 mm 0.00 in0.0 mm
09:51 AM 36.0°F2.2°C -11.6°F-24.2°C 12% 20.0 mph E32.2 kmh E 30.0 mph48.3 kmh 24.72 in837.1 mb 0.00 in0.0 mm 0.00 in0.0 mm 0.00 in0.0 mm
09:56 AM 36.3°F2.4°C -8.3°F-22.4°C 14% 19.0 mph E30.6 kmh E 29.5 mph47.5 kmh 24.72 in837.1 mb 0.00 in0.0 mm 0.00 in0.0 mm 0.00 in0.0 mm
10:01 AM 36.7°F2.6°C -12.8°F-24.9°C 11% 19.0 mph E30.6 kmh E 34.2 mph55.0 kmh 24.72 in837.1 mb 0.00 in0.0 mm 0.00 in0.0 mm 0.00 in0.0 mm
10:06 AM 36.1°F2.3°C -11.6°F-24.2°C 12% 21.0 mph E33.8 kmh E 31.8 mph51.2 kmh 24.72 in837.1 mb 0.00 in0.0 mm 0.00 in0.0 mm 0.00 in0.0 mm
10:11 AM 36.3°F2.4°C -11.4°F-24.1°C 12% 21.0 mph E33.8 kmh E 32.2 mph51.8 kmh 24.72 in837.1 mb 0.00 in0.0 mm 0.00 in0.0 mm 0.00 in0.0 mm
10:16 AM 36.1°F2.3°C -11.6°F-24.2°C 12% 22.0 mph E35.4 kmh E 33.1 mph53.3 kmh 24.72 in837.1 mb 0.00 in0.0 mm 0.00 in0.0 mm 0.00 in0.0 mm
10:21 AM 36.9°F2.7°C -12.6°F-24.8°C 11% 21.0 mph E33.8 kmh E 35.6 mph57.3 kmh 24.72 in837.1 mb 0.00 in0.0 mm 0.00 in0.0 mm 0.00 in0.0 mm
10:26 AM 36.7°F2.6°C -12.8°F-24.9°C 11% 19.0 mph E30.6 kmh E 32.2 mph51.8 kmh 24.72 in837.1 mb 0.00 in0.0 mm 0.00 in0.0 mm 0.00 in0.0 mm
10:31 AM 36.9°F2.7°C -12.6°F-24.8°C 11% 20.0 mph E32.2 kmh E 31.3 mph50.4 kmh 24.72 in837.1 mb 0.00 in0.0 mm 0.00 in0.0 mm 0.00 in0.0 mm
10:36 AM 37.0°F2.8°C -12.5°F-24.7°C 11% 21.0 mph E33.8 kmh E 36.0 mph57.9 kmh 24.72 in837.1 mb 0.00 in0.0 mm 0.00 in0.0 mm 0.00 in0.0 mm
10:41 AM 36.7°F2.6°C -12.8°F-24.9°C 11% 21.0 mph E33.8 kmh E 33.1 mph53.3 kmh 24.72 in837.1 mb 0.00 in0.0 mm 0.00 in0.0 mm 0.00 in0.0 mm
10:46 AM 37.2°F2.9°C -12.5°F-24.7°C 11% 22.0 mph E35.4 kmh E 30.0 mph48.3 kmh 24.72 in837.1 mb 0.00 in0.0 mm 0.00 in0.0 mm 0.00 in0.0 mm
10:51 AM 37.2°F2.9°C -12.5°F-24.7°C 11% 23.0 mph E37.0 kmh E 32.2 mph51.8 kmh 24.72 in837.1 mb 0.00 in0.0 mm 0.00 in0.0 mm 0.00 in0.0 mm
10:56 AM 37.2°F2.9°C -12.5°F-24.7°C 11% 22.0 mph E35.4 kmh E 30.0 mph48.3 kmh 24.72 in837.1 mb 0.00 in0.0 mm 0.00 in0.0 mm 0.00 in0.0 mm
11:01 AM 36.9°F2.7°C -12.6°F-24.8°C 11% 20.0 mph E32.2 kmh E 32.7 mph52.6 kmh 24.72 in837.1 mb 0.00 in0.0 mm 0.00 in0.0 mm 0.00 in0.0 mm
11:06 AM 37.4°F3.0°C -12.3°F-24.6°C 11% 20.0 mph E32.2 kmh E 30.9 mph49.7 kmh 24.72 in837.1 mb 0.00 in0.0 mm 0.00 in0.0 mm 0.00 in0.0 mm
11:11 AM 37.2°F2.9°C -12.5°F-24.7°C 11% 21.0 mph E33.8 kmh E 31.8 mph51.2 kmh 24.72 in837.1 mb 0.00 in0.0 mm 0.00 in0.0 mm 0.00 in0.0 mm
11:16 AM 37.9°F3.3°C -11.7°F-24.3°C 11% 20.0 mph E32.2 kmh E 29.5 mph47.5 kmh 24.75 in838.1 mb 0.00 in0.0 mm 0.00 in0.0 mm 0.00 in0.0 mm
11:21 AM 37.2°F2.9°C -12.5°F-24.7°C 11% 17.0 mph E27.4 kmh E 30.0 mph48.3 kmh 24.75 in838.1 mb 0.00 in0.0 mm 0.00 in0.0 mm 0.00 in0.0 mm
11:26 AM 37.4°F3.0°C -12.3°F-24.6°C 11% 18.0 mph E29.0 kmh E 28.4 mph45.7 kmh 24.75 in838.1 mb 0.00 in0.0 mm 0.00 in0.0 mm 0.00 in0.0 mm
11:31 AM 37.6°F3.1°C -12.1°F-24.5°C 11% 18.0 mph E29.0 kmh E 29.1 mph46.8 kmh 24.75 in838.1 mb 0.00 in0.0 mm 0.00 in0.0 mm 0.00 in0.0 mm
11:36 AM 37.4°F3.0°C -12.3°F-24.6°C 11% 17.0 mph E27.4 kmh E 24.8 mph39.9 kmh 24.75 in838.1 mb 0.00 in0.0 mm 0.00 in0.0 mm 0.00 in0.0 mm
11:41 AM 38.1°F3.4°C -11.7°F-24.3°C 11% 17.0 mph E27.4 kmh E 29.5 mph47.5 kmh 24.75 in838.1 mb 0.00 in0.0 mm 0.00 in0.0 mm 0.00 in0.0 mm
11:46 AM 38.3°F3.5°C -11.6°F-24.2°C 11% 17.0 mph E27.4 kmh E 26.6 mph42.8 kmh 24.75 in838.1 mb 0.00 in0.0 mm 0.00 in0.0 mm 0.00 in0.0 mm
11:51 AM 37.6°F3.1°C -12.1°F-24.5°C 11% 15.0 mph E24.1 kmh E 26.6 mph42.8 kmh 24.75 in838.1 mb 0.00 in0.0 mm 0.00 in0.0 mm 0.00 in0.0 mm
11:56 AM 37.4°F3.0°C -12.3°F-24.6°C 11% 14.0 mph ESE22.5 kmh ESE 25.3 mph40.7 kmh 24.75 in838.1 mb 0.00 in0.0 mm 0.00 in0.0 mm 0.00 in0.0 mm
12:01 PM 38.1°F3.4°C -11.7°F-24.3°C 11% 14.0 mph ESE22.5 kmh ESE 25.3 mph40.7 kmh 24.75 in838.1 mb 0.00 in0.0 mm 0.00 in0.0 mm 0.00 in0.0 mm
12:06 PM 38.5°F3.6°C -11.4°F-24.1°C 11% 14.0 mph ESE22.5 kmh ESE 24.2 mph38.9 kmh 24.75 in838.1 mb 0.00 in0.0 mm 0.00 in0.0 mm 0.00 in0.0 mm
12:11 PM 37.6°F3.1°C -12.1°F-24.5°C 11% 15.0 mph ESE24.1 kmh ESE 29.5 mph47.5 kmh 24.75 in838.1 mb 0.00 in0.0 mm 0.00 in0.0 mm 0.00 in0.0 mm
12:16 PM 37.4°F3.0°C -12.3°F-24.6°C 11% 15.0 mph E24.1 kmh E 20.1 mph32.3 kmh 24.75 in838.1 mb 0.00 in0.0 mm 0.00 in0.0 mm 0.00 in0.0 mm
12:21 PM 38.1°F3.4°C -11.7°F-24.3°C 11% 12.0 mph E19.3 kmh E 16.3 mph26.2 kmh 24.75 in838.1 mb 0.00 in0.0 mm 0.00 in0.0 mm 0.00 in0.0 mm
12:26 PM 39.7°F4.3°C -10.5°F-23.6°C 11% 10.0 mph ESE16.1 kmh ESE 20.1 mph32.3 kmh 24.75 in838.1 mb 0.00 in0.0 mm 0.00 in0.0 mm 0.00 in0.0 mm
12:31 PM 38.7°F3.7°C -11.2°F-24.0°C 11% 14.0 mph E22.5 kmh E 27.1 mph43.6 kmh 24.75 in838.1 mb 0.00 in0.0 mm 0.00 in0.0 mm 0.00 in0.0 mm
12:36 PM 39.0°F3.9°C -11.0°F-23.9°C 11% 15.0 mph E24.1 kmh E 27.1 mph43.6 kmh 24.75 in838.1 mb 0.00 in0.0 mm 0.00 in0.0 mm 0.00 in0.0 mm
12:41 PM 39.4°F4.1°C -10.7°F-23.7°C 11% 12.0 mph E19.3 kmh E 20.6 mph33.2 kmh 24.75 in838.1 mb 0.00 in0.0 mm 0.00 in0.0 mm 0.00 in0.0 mm
12:46 PM 38.8°F3.8°C -11.2°F-24.0°C 11% 12.0 mph E19.3 kmh E 26.2 mph42.2 kmh 24.75 in838.1 mb 0.00 in0.0 mm 0.00 in0.0 mm 0.00 in0.0 mm
12:51 PM 37.6°F3.1°C -12.1°F-24.5°C 11% 13.0 mph E20.9 kmh E 28.4 mph45.7 kmh 24.75 in838.1 mb 0.00 in0.0 mm 0.00 in0.0 mm 0.00 in0.0 mm
12:56 PM 36.9°F2.7°C -12.6°F-24.8°C 11% 14.0 mph SE22.5 kmh SE 27.1 mph43.6 kmh 24.75 in838.1 mb 0.00 in0.0 mm 0.00 in0.0 mm 0.00 in0.0 mm
01:01 PM 38.8°F3.8°C -11.2°F-24.0°C 11% 13.0 mph SSE20.9 kmh SSE 19.0 mph30.6 kmh 24.75 in838.1 mb 0.00 in0.0 mm 0.00 in0.0 mm 0.00 in0.0 mm
01:06 PM 37.9°F3.3°C -11.7°F-24.3°C 11% 13.0 mph SE20.9 kmh SE 22.4 mph36.0 kmh 24.75 in838.1 mb 0.00 in0.0 mm 0.00 in0.0 mm 0.00 in0.0 mm
01:11 PM 36.3°F2.4°C -11.4°F-24.1°C 12% 14.0 mph ESE22.5 kmh ESE 25.7 mph41.4 kmh 24.75 in838.1 mb 0.00 in0.0 mm 0.00 in0.0 mm 0.00 in0.0 mm
01:16 PM 38.1°F3.4°C -11.7°F-24.3°C 11% 14.0 mph E22.5 kmh E 22.4 mph36.0 kmh 24.75 in838.1 mb 0.00 in0.0 mm 0.00 in0.0 mm 0.00 in0.0 mm
01:21 PM 38.3°F3.5°C -11.6°F-24.2°C 11% 12.0 mph E19.3 kmh E 19.9 mph32.0 kmh 24.75 in838.1 mb 0.00 in0.0 mm 0.00 in0.0 mm 0.00 in0.0 mm
01:26 PM 39.7°F4.3°C -10.5°F-23.6°C 11% 12.0 mph E19.3 kmh E 21.5 mph34.6 kmh 24.75 in838.1 mb 0.00 in0.0 mm 0.00 in0.0 mm 0.00 in0.0 mm
01:31 PM 39.6°F4.2°C -10.5°F-23.6°C 11% 13.0 mph ESE20.9 kmh ESE 22.8 mph36.7 kmh 24.75 in838.1 mb 0.00 in0.0 mm 0.00 in0.0 mm 0.00 in0.0 mm
01:36 PM 39.9°F4.4°C -10.3°F-23.5°C 11% 12.0 mph SE19.3 kmh SE 23.7 mph38.1 kmh 24.75 in838.1 mb 0.00 in0.0 mm 0.00 in0.0 mm 0.00 in0.0 mm
01:41 PM 39.6°F4.2°C -10.5°F-23.6°C 11% 12.0 mph ESE19.3 kmh ESE 20.1 mph32.3 kmh 24.75 in838.1 mb 0.00 in0.0 mm 0.00 in0.0 mm 0.00 in0.0 mm
01:46 PM 39.2°F4.0°C -10.8°F-23.8°C 11% 12.0 mph E19.3 kmh E 19.5 mph31.4 kmh 24.75 in838.1 mb 0.00 in0.0 mm 0.00 in0.0 mm 0.00 in0.0 mm
01:51 PM 39.4°F4.1°C -10.7°F-23.7°C 11% 11.0 mph E17.7 kmh E 21.9 mph35.2 kmh 24.75 in838.1 mb 0.00 in0.0 mm 0.00 in0.0 mm 0.00 in0.0 mm
01:56 PM 39.7°F4.3°C -10.5°F-23.6°C 11% 12.0 mph E19.3 kmh E 21.9 mph35.2 kmh 24.75 in838.1 mb 0.00 in0.0 mm 0.00 in0.0 mm 0.00 in0.0 mm
02:01 PM 39.7°F4.3°C -10.5°F-23.6°C 11% 13.0 mph E20.9 kmh E 22.4 mph36.0 kmh 24.75 in838.1 mb 0.00 in0.0 mm 0.00 in0.0 mm 0.00 in0.0 mm
02:06 PM 38.8°F3.8°C -11.2°F-24.0°C 11% 12.0 mph E19.3 kmh E 22.8 mph36.7 kmh 24.75 in838.1 mb 0.00 in0.0 mm 0.00 in0.0 mm 0.00 in0.0 mm
02:11 PM 39.0°F3.9°C -11.0°F-23.9°C 11% 12.0 mph E19.3 kmh E 20.6 mph33.2 kmh 24.75 in838.1 mb 0.00 in0.0 mm 0.00 in0.0 mm 0.00 in0.0 mm
02:16 PM 36.9°F2.7°C -12.6°F-24.8°C 11% 15.0 mph E24.1 kmh E 28.4 mph45.7 kmh 24.75 in838.1 mb 0.00 in0.0 mm 0.00 in0.0 mm 0.00 in0.0 mm
02:21 PM 36.9°F2.7°C -12.6°F-24.8°C 11% 16.0 mph ESE25.7 kmh ESE 24.2 mph38.9 kmh 24.75 in838.1 mb 0.00 in0.0 mm 0.00 in0.0 mm 0.00 in0.0 mm
02:26 PM 37.9°F3.3°C -11.7°F-24.3°C 11% 13.0 mph E20.9 kmh E 19.0 mph30.6 kmh 24.75 in838.1 mb 0.00 in0.0 mm 0.00 in0.0 mm 0.00 in0.0 mm
02:31 PM 38.8°F3.8°C -11.2°F-24.0°C 11% 12.0 mph E19.3 kmh E 19.9 mph32.0 kmh 24.75 in838.1 mb 0.00 in0.0 mm 0.00 in0.0 mm 0.00 in0.0 mm
02:36 PM 39.9°F4.4°C -10.3°F-23.5°C 11% 12.0 mph E19.3 kmh E 18.1 mph29.1 kmh 24.75 in838.1 mb 0.00 in0.0 mm 0.00 in0.0 mm 0.00 in0.0 mm
02:41 PM 39.7°F4.3°C -10.5°F-23.6°C 11% 13.0 mph ESE20.9 kmh ESE 22.4 mph36.0 kmh 24.75 in838.1 mb 0.00 in0.0 mm 0.00 in0.0 mm 0.00 in0.0 mm
02:46 PM 40.1°F4.5°C -10.1°F-23.4°C 11% 13.0 mph ESE20.9 kmh ESE 19.5 mph31.4 kmh 24.75 in838.1 mb 0.00 in0.0 mm 0.00 in0.0 mm 0.00 in0.0 mm
02:51 PM 39.9°F4.4°C -10.3°F-23.5°C 11% 12.0 mph ESE19.3 kmh ESE 19.9 mph32.0 kmh 24.75 in838.1 mb 0.00 in0.0 mm 0.00 in0.0 mm 0.00 in0.0 mm
02:56 PM 39.4°F4.1°C -10.7°F-23.7°C 11% 15.0 mph E24.1 kmh E 26.6 mph42.8 kmh 24.75 in838.1 mb 0.00 in0.0 mm 0.00 in0.0 mm 0.00 in0.0 mm
03:01 PM 39.4°F4.1°C -10.7°F-23.7°C 11% 16.0 mph E25.7 kmh E 23.7 mph38.1 kmh 24.75 in838.1 mb 0.00 in0.0 mm 0.00 in0.0 mm 0.00 in0.0 mm
03:06 PM 39.7°F4.3°C -10.5°F-23.6°C 11% 15.0 mph E24.1 kmh E 21.9 mph35.2 kmh 24.75 in838.1 mb 0.00 in0.0 mm 0.00 in0.0 mm 0.00 in0.0 mm
03:11 PM 39.7°F4.3°C -10.5°F-23.6°C 11% 13.0 mph E20.9 kmh E 18.6 mph29.9 kmh 24.75 in838.1 mb 0.00 in0.0 mm 0.00 in0.0 mm 0.00 in0.0 mm
03:16 PM 40.1°F4.5°C -10.1°F-23.4°C 11% 11.0 mph E17.7 kmh E 16.8 mph27.0 kmh 24.75 in838.1 mb 0.00 in0.0 mm 0.00 in0.0 mm 0.00 in0.0 mm
03:21 PM 40.5°F4.7°C -9.9°F-23.3°C 11% 10.0 mph E16.1 kmh E 20.1 mph32.3 kmh 24.75 in838.1 mb 0.00 in0.0 mm 0.00 in0.0 mm 0.00 in0.0 mm
03:26 PM 41.2°F5.1°C -9.2°F-22.9°C 11% 12.0 mph E19.3 kmh E 34.2 mph55.0 kmh 24.75 in838.1 mb 0.00 in0.0 mm 0.00 in0.0 mm 0.00 in0.0 mm
03:31 PM 41.7°F5.4°C -8.9°F-22.7°C 11% 11.0 mph SE17.7 kmh SE 17.2 mph27.7 kmh 24.75 in838.1 mb 0.00 in0.0 mm 0.00 in0.0 mm 0.00 in0.0 mm
03:36 PM 39.0°F3.9°C -11.0°F-23.9°C 11% 11.0 mph SSE17.7 kmh SSE 28.6 mph46.0 kmh 24.75 in838.1 mb 0.00 in0.0 mm 0.00 in0.0 mm 0.00 in0.0 mm
03:41 PM 39.6°F4.2°C -10.5°F-23.6°C 11% 11.0 mph S17.7 kmh S 16.3 mph26.2 kmh 24.75 in838.1 mb 0.00 in0.0 mm 0.00 in0.0 mm 0.00 in0.0 mm
03:46 PM 40.3°F4.6°C -9.9°F-23.3°C 11% 9.0 mph SSE14.5 kmh SSE 13.9 mph22.4 kmh 24.75 in838.1 mb 0.00 in0.0 mm 0.00 in0.0 mm 0.00 in0.0 mm
03:51 PM 39.7°F4.3°C -10.5°F-23.6°C 11% 8.0 mph ESE12.9 kmh ESE 13.9 mph22.4 kmh 24.75 in838.1 mb 0.00 in0.0 mm 0.00 in0.0 mm 0.00 in0.0 mm
03:56 PM 39.0°F3.9°C -11.0°F-23.9°C 11% 8.0 mph ESE12.9 kmh ESE 14.8 mph23.8 kmh 24.75 in838.1 mb 0.00 in0.0 mm 0.00 in0.0 mm 0.00 in0.0 mm
04:01 PM 39.2°F4.0°C -10.8°F-23.8°C 11% 9.0 mph SE14.5 kmh SE 14.8 mph23.8 kmh 24.75 in838.1 mb 0.00 in0.0 mm 0.00 in0.0 mm 0.00 in0.0 mm
04:06 PM 39.9°F4.4°C -10.3°F-23.5°C 11% 8.0 mph SE12.9 kmh SE 13.4 mph21.6 kmh 24.75 in838.1 mb 0.00 in0.0 mm 0.00 in0.0 mm 0.00 in0.0 mm
04:11 PM 38.8°F3.8°C -11.2°F-24.0°C 11% 8.0 mph SE12.9 kmh SE 16.3 mph26.2 kmh 24.75 in838.1 mb 0.00 in0.0 mm 0.00 in0.0 mm 0.00 in0.0 mm
04:16 PM 39.9°F4.4°C -10.3°F-23.5°C 11% 9.0 mph SE14.5 kmh SE 19.9 mph32.0 kmh 24.77 in838.8 mb 0.00 in0.0 mm 0.00 in0.0 mm 0.00 in0.0 mm
04:21 PM 40.3°F4.6°C -9.9°F-23.3°C 11% 9.0 mph SE14.5 kmh SE 17.7 mph28.5 kmh 24.77 in838.8 mb 0.00 in0.0 mm 0.00 in0.0 mm 0.00 in0.0 mm
04:26 PM 39.7°F4.3°C -10.5°F-23.6°C 11% 9.0 mph SE14.5 kmh SE 18.1 mph29.1 kmh 24.77 in838.8 mb 0.00 in0.0 mm 0.00 in0.0 mm 0.00 in0.0 mm
04:31 PM 39.2°F4.0°C -10.8°F-23.8°C 11% 10.0 mph SE16.1 kmh SE 18.1 mph29.1 kmh 24.77 in838.8 mb 0.00 in0.0 mm 0.00 in0.0 mm 0.00 in0.0 mm
04:36 PM 37.4°F3.0°C -12.3°F-24.6°C 11% 11.0 mph SSE17.7 kmh SSE 16.8 mph27.0 kmh 24.77 in838.8 mb 0.00 in0.0 mm 0.00 in0.0 mm 0.00 in0.0 mm
04:41 PM 36.3°F2.4°C -8.3°F-22.4°C 14% 12.0 mph S19.3 kmh S 16.3 mph26.2 kmh 24.77 in838.8 mb 0.00 in0.0 mm 0.00 in0.0 mm 0.00 in0.0 mm
04:46 PM 36.3°F2.4°C -4.2°F-20.1°C 17% 12.0 mph S19.3 kmh S 18.1 mph29.1 kmh 24.77 in838.8 mb 0.00 in0.0 mm 0.00 in0.0 mm 0.00 in0.0 mm
04:51 PM 35.6°F2.0°C -2.6°F-19.2°C 19% 12.0 mph S19.3 kmh S 16.8 mph27.0 kmh 24.77 in838.8 mb 0.00 in0.0 mm 0.00 in0.0 mm 0.00 in0.0 mm
04:56 PM 35.6°F2.0°C 2.5°F-16.4°C 24% 11.0 mph S17.7 kmh S 15.2 mph24.5 kmh 24.77 in838.8 mb 0.00 in0.0 mm 0.00 in0.0 mm 0.00 in0.0 mm
05:01 PM 35.8°F2.1°C 7.3°F-13.7°C 30% 11.0 mph SSW17.7 kmh SSW 13.9 mph22.4 kmh 24.77 in838.8 mb 0.00 in0.0 mm 0.00 in0.0 mm 0.00 in0.0 mm
05:06 PM 35.8°F2.1°C 7.3°F-13.7°C 30% 10.0 mph SSW16.1 kmh SSW 13.0 mph20.9 kmh 24.77 in838.8 mb 0.00 in0.0 mm 0.00 in0.0 mm 0.00 in0.0 mm
05:11 PM 35.2°F1.8°C 7.0°F-13.9°C 30% 9.0 mph SSW14.5 kmh SSW 11.6 mph18.7 kmh 24.77 in838.8 mb 0.00 in0.0 mm 0.00 in0.0 mm 0.00 in0.0 mm
05:16 PM 35.2°F1.8°C 7.7°F-13.5°C 31% 8.0 mph SSW12.9 kmh SSW 12.5 mph20.1 kmh 24.80 in839.8 mb 0.00 in0.0 mm 0.00 in0.0 mm 0.00 in0.0 mm
05:21 PM 35.1°F1.7°C 7.5°F-13.6°C 31% 8.0 mph S12.9 kmh S 10.5 mph16.9 kmh 24.80 in839.8 mb 0.00 in0.0 mm 0.00 in0.0 mm 0.00 in0.0 mm
05:26 PM 34.9°F1.6°C 7.3°F-13.7°C 31% 6.0 mph S9.7 kmh S 8.7 mph14.0 kmh 24.80 in839.8 mb 0.00 in0.0 mm 0.00 in0.0 mm 0.00 in0.0 mm
05:31 PM 34.7°F1.5°C 7.2°F-13.8°C 31% 4.0 mph S6.4 kmh S 5.4 mph8.7 kmh 24.80 in839.8 mb 0.00 in0.0 mm 0.00 in0.0 mm 0.00 in0.0 mm
05:36 PM 34.5°F1.4°C 7.0°F-13.9°C 31% 4.0 mph S6.4 kmh S 5.8 mph9.3 kmh 24.80 in839.8 mb 0.00 in0.0 mm 0.00 in0.0 mm 0.00 in0.0 mm
05:41 PM 34.5°F1.4°C 7.0°F-13.9°C 31% 4.0 mph SSE6.4 kmh SSE 4.9 mph7.9 kmh 24.80 in839.8 mb 0.00 in0.0 mm 0.00 in0.0 mm 0.00 in0.0 mm
05:46 PM 34.5°F1.4°C 7.0°F-13.9°C 31% 2.0 mph SSE3.2 kmh SSE 4.5 mph7.2 kmh 24.80 in839.8 mb 0.00 in0.0 mm 0.00 in0.0 mm 0.00 in0.0 mm
05:51 PM 34.7°F1.5°C 6.4°F-14.2°C 30% 3.0 mph E4.8 kmh E 7.4 mph11.9 kmh 24.80 in839.8 mb 0.00 in0.0 mm 0.00 in0.0 mm 0.00 in0.0 mm
05:56 PM 34.7°F1.5°C 7.2°F-13.8°C 31% 3.0 mph ENE4.8 kmh ENE 4.5 mph7.2 kmh 24.80 in839.8 mb 0.00 in0.0 mm 0.00 in0.0 mm 0.00 in0.0 mm
06:01 PM 34.5°F1.4°C 7.0°F-13.9°C 31% 2.0 mph ENE3.2 kmh ENE 6.3 mph10.1 kmh 24.80 in839.8 mb 0.00 in0.0 mm 0.00 in0.0 mm 0.00 in0.0 mm
06:06 PM 32.9°F0.5°C 11.8°F-11.2°C 41% 6.0 mph SE9.7 kmh SE 19.0 mph30.6 kmh 24.80 in839.8 mb 0.00 in0.0 mm 0.00 in0.0 mm 0.00 in0.0 mm
06:11 PM 32.2°F0.1°C 14.7°F-9.6°C 48% 12.0 mph S19.3 kmh S 18.1 mph29.1 kmh 24.80 in839.8 mb 0.00 in0.0 mm 0.00 in0.0 mm 0.00 in0.0 mm
06:16 PM 31.6°F-0.2°C 15.6°F-9.1°C 51% 13.0 mph S20.9 kmh S 16.3 mph26.2 kmh 24.83 in840.8 mb 0.00 in0.0 mm 0.00 in0.0 mm 0.00 in0.0 mm
06:21 PM 31.1°F-0.5°C 16.3°F-8.7°C 54% 12.0 mph SSW19.3 kmh SSW 15.4 mph24.8 kmh 24.83 in840.8 mb 0.00 in0.0 mm 0.00 in0.0 mm 0.00 in0.0 mm
06:26 PM 30.4°F-0.9°C 17.8°F-7.9°C 59% 10.0 mph SSW16.1 kmh SSW 15.2 mph24.5 kmh 24.83 in840.8 mb 0.00 in0.0 mm 0.00 in0.0 mm 0.00 in0.0 mm
06:31 PM 29.8°F-1.2°C 19.2°F-7.1°C 64% 10.0 mph S16.1 kmh S 13.0 mph20.9 kmh 24.83 in840.8 mb 0.00 in0.0 mm 0.00 in0.0 mm 0.00 in0.0 mm
06:36 PM 29.7°F-1.3°C 20.1°F-6.6°C 67% 9.0 mph S14.5 kmh S 13.4 mph21.6 kmh 24.83 in840.8 mb 0.00 in0.0 mm 0.00 in0.0 mm 0.00 in0.0 mm
06:41 PM 29.7°F-1.3°C 20.5°F-6.4°C 68% 9.0 mph SSW14.5 kmh SSW 12.1 mph19.5 kmh 24.83 in840.8 mb 0.00 in0.0 mm 0.00 in0.0 mm 0.00 in0.0 mm
06:46 PM 29.5°F-1.4°C 20.7°F-6.3°C 69% 8.0 mph SSW12.9 kmh SSW 10.1 mph16.3 kmh 24.83 in840.8 mb 0.00 in0.0 mm 0.00 in0.0 mm 0.00 in0.0 mm
06:51 PM 29.3°F-1.5°C 21.0°F-6.1°C 71% 6.0 mph SSW9.7 kmh SSW 9.6 mph15.4 kmh 24.83 in840.8 mb 0.00 in0.0 mm 0.00 in0.0 mm 0.00 in0.0 mm
06:56 PM 28.9°F-1.7°C 20.7°F-6.3°C 71% 6.0 mph S9.7 kmh S 6.9 mph11.1 kmh 24.83 in840.8 mb 0.00 in0.0 mm 0.00 in0.0 mm 0.00 in0.0 mm
07:01 PM 28.8°F-1.8°C 20.8°F-6.2°C 72% 4.0 mph S6.4 kmh S 6.3 mph10.1 kmh 24.83 in840.8 mb 0.00 in0.0 mm 0.00 in0.0 mm 0.00 in0.0 mm
07:07 PM 28.8°F-1.8°C 20.5°F-6.4°C 71% 4.0 mph S6.4 kmh S 4.9 mph7.9 kmh 24.83 in840.8 mb 0.00 in0.0 mm 0.00 in0.0 mm 0.00 in0.0 mm
07:12 PM 28.8°F-1.8°C 20.5°F-6.4°C 71% 2.0 mph S3.2 kmh S 4.5 mph7.2 kmh 24.83 in840.8 mb 0.00 in0.0 mm 0.00 in0.0 mm 0.00 in0.0 mm
07:17 PM 28.6°F-1.9°C 20.5°F-6.4°C 71% 1.0 mph SSE1.6 kmh SSE 5.4 mph8.7 kmh 24.83 in840.8 mb 0.00 in0.0 mm 0.00 in0.0 mm 0.00 in0.0 mm
07:22 PM 28.2°F-2.1°C 19.8°F-6.8°C 70% 1.0 mph ESE1.6 kmh ESE 4.9 mph7.9 kmh 24.83 in840.8 mb 0.00 in0.0 mm 0.00 in0.0 mm 0.00 in0.0 mm
07:27 PM 28.0°F-2.2°C 19.2°F-7.1°C 69% 1.0 mph E1.6 kmh E 5.4 mph8.7 kmh 24.83 in840.8 mb 0.00 in0.0 mm 0.00 in0.0 mm 0.00 in0.0 mm
07:32 PM 27.9°F-2.3°C 19.0°F-7.2°C 69% 3.0 mph NE4.8 kmh NE 5.8 mph9.3 kmh 24.83 in840.8 mb 0.00 in0.0 mm 0.00 in0.0 mm 0.00 in0.0 mm
07:37 PM 27.9°F-2.3°C 19.4°F-7.0°C 70% 3.0 mph NNE4.8 kmh NNE 5.8 mph9.3 kmh 24.83 in840.8 mb 0.00 in0.0 mm 0.00 in0.0 mm 0.00 in0.0 mm
07:42 PM 27.9°F-2.3°C 19.8°F-6.8°C 71% 2.0 mph NNE3.2 kmh NNE 4.5 mph7.2 kmh 24.83 in840.8 mb 0.00 in0.0 mm 0.00 in0.0 mm 0.00 in0.0 mm
07:47 PM 27.5°F-2.5°C 19.8°F-6.8°C 72% Calm Calm -- 24.83 in840.8 mb 0.00 in0.0 mm 0.00 in0.0 mm 0.00 in0.0 mm
07:52 PM 27.7°F-2.4°C 20.1°F-6.6°C 73% Calm Calm -- 24.83 in840.8 mb 0.00 in0.0 mm 0.00 in0.0 mm 0.00 in0.0 mm
07:57 PM 27.9°F-2.3°C 20.3°F-6.5°C 73% Calm Calm -- 24.83 in840.8 mb 0.00 in0.0 mm 0.00 in0.0 mm 0.00 in0.0 mm
08:02 PM 28.0°F-2.2°C 20.8°F-6.2°C 74% Calm Calm 2.7 mph4.3 kmh 24.83 in840.8 mb 0.00 in0.0 mm 0.00 in0.0 mm 0.00 in0.0 mm
08:07 PM 28.0°F-2.2°C 20.5°F-6.4°C 73% Calm Calm -- 24.83 in840.8 mb 0.00 in0.0 mm 0.00 in0.0 mm 0.00 in0.0 mm
08:12 PM 27.7°F-2.4°C 19.9°F-6.7°C 72% Calm Calm 3.1 mph5.0 kmh 24.83 in840.8 mb 0.00 in0.0 mm 0.00 in0.0 mm 0.00 in0.0 mm
08:17 PM 27.3°F-2.6°C 19.6°F-6.9°C 72% Calm Calm -- 24.83 in840.8 mb 0.00 in0.0 mm 0.00 in0.0 mm 0.00 in0.0 mm
08:22 PM 27.1°F-2.7°C 19.4°F-7.0°C 72% Calm Calm -- 24.83 in840.8 mb 0.00 in0.0 mm 0.00 in0.0 mm 0.00 in0.0 mm
08:27 PM 27.1°F-2.7°C 19.6°F-6.9°C 73% Calm Calm -- 24.83 in840.8 mb 0.00 in0.0 mm 0.00 in0.0 mm 0.00 in0.0 mm
08:32 PM 26.8°F-2.9°C 19.6°F-6.9°C 74% Calm Calm -- 24.83 in840.8 mb 0.00 in0.0 mm 0.00 in0.0 mm 0.00 in0.0 mm
08:37 PM 26.8°F-2.9°C 19.6°F-6.9°C 74% Calm Calm 2.7 mph4.3 kmh 24.83 in840.8 mb 0.00 in0.0 mm 0.00 in0.0 mm 0.00 in0.0 mm
08:42 PM 26.8°F-2.9°C 19.9°F-6.7°C 75% Calm Calm 2.7 mph4.3 kmh 24.83 in840.8 mb 0.00 in0.0 mm 0.00 in0.0 mm 0.00 in0.0 mm
08:47 PM 26.8°F-2.9°C 19.9°F-6.7°C 75% Calm Calm -- 24.83 in840.8 mb 0.00 in0.0 mm 0.00 in0.0 mm 0.00 in0.0 mm
08:52 PM 27.0°F-2.8°C 20.1°F-6.6°C 75% Calm Calm -- 24.83 in840.8 mb 0.00 in0.0 mm 0.00 in0.0 mm 0.00 in0.0 mm
08:57 PM 26.8°F-2.9°C 19.6°F-6.9°C 74% Calm Calm -- 24.83 in840.8 mb 0.00 in0.0 mm 0.00 in0.0 mm 0.00 in0.0 mm
09:02 PM 26.8°F-2.9°C 19.6°F-6.9°C 74% Calm Calm -- 24.83 in840.8 mb 0.00 in0.0 mm 0.00 in0.0 mm 0.00 in0.0 mm
09:07 PM 27.0°F-2.8°C 19.8°F-6.8°C 74% Calm Calm -- 24.83 in840.8 mb 0.00 in0.0 mm 0.00 in0.0 mm 0.00 in0.0 mm
09:12 PM 26.8°F-2.9°C 19.6°F-6.9°C 74% Calm Calm -- 24.83 in840.8 mb 0.00 in0.0 mm 0.00 in0.0 mm 0.00 in0.0 mm
09:17 PM 26.4°F-3.1°C 19.2°F-7.1°C 74% Calm Calm -- 24.83 in840.8 mb 0.00 in0.0 mm 0.00 in0.0 mm 0.00 in0.0 mm
09:22 PM 26.2°F-3.2°C 18.9°F-7.3°C 73% Calm Calm -- 24.83 in840.8 mb 0.00 in0.0 mm 0.00 in0.0 mm 0.00 in0.0 mm
09:27 PM 26.1°F-3.3°C 18.9°F-7.3°C 74% Calm Calm -- 24.83 in840.8 mb 0.00 in0.0 mm 0.00 in0.0 mm 0.00 in0.0 mm
09:32 PM 26.1°F-3.3°C 18.9°F-7.3°C 74% Calm Calm -- 24.83 in840.8 mb 0.00 in0.0 mm 0.00 in0.0 mm 0.00 in0.0 mm
09:37 PM 26.2°F-3.2°C 19.4°F-7.0°C 75% Calm Calm 2.7 mph4.3 kmh 24.83 in840.8 mb 0.00 in0.0 mm 0.00 in0.0 mm 0.00 in0.0 mm
09:42 PM 26.6°F-3.0°C 20.1°F-6.6°C 76% Calm Calm -- 24.83 in840.8 mb 0.00 in0.0 mm 0.00 in0.0 mm 0.00 in0.0 mm
09:47 PM 26.6°F-3.0°C 19.8°F-6.8°C 75% Calm Calm -- 24.86 in841.9 mb 0.00 in0.0 mm 0.00 in0.0 mm 0.00 in0.0 mm
09:52 PM 26.4°F-3.1°C 19.6°F-6.9°C 75% Calm Calm 2.7 mph4.3 kmh 24.86 in841.9 mb 0.00 in0.0 mm 0.00 in0.0 mm 0.00 in0.0 mm
09:57 PM 25.5°F-3.6°C 18.3°F-7.6°C 74% Calm Calm 4.0 mph6.4 kmh 24.86 in841.9 mb 0.00 in0.0 mm 0.00 in0.0 mm 0.00 in0.0 mm
10:02 PM 25.7°F-3.5°C 18.5°F-7.5°C 74% 2.0 mph NE3.2 kmh NE 4.9 mph7.9 kmh 24.86 in841.9 mb 0.00 in0.0 mm 0.00 in0.0 mm 0.00 in0.0 mm
10:07 PM 26.1°F-3.3°C 18.9°F-7.3°C 74% 2.0 mph NE3.2 kmh NE 3.6 mph5.8 kmh 24.86 in841.9 mb 0.00 in0.0 mm 0.00 in0.0 mm 0.00 in0.0 mm
10:12 PM 26.6°F-3.0°C 19.4°F-7.0°C 74% 2.0 mph NE3.2 kmh NE 3.6 mph5.8 kmh 24.86 in841.9 mb 0.00 in0.0 mm 0.00 in0.0 mm 0.00 in0.0 mm
10:17 PM 26.2°F-3.2°C 19.0°F-7.2°C 74% 1.0 mph NE1.6 kmh NE 3.1 mph5.0 kmh 24.86 in841.9 mb 0.00 in0.0 mm 0.00 in0.0 mm 0.00 in0.0 mm
10:22 PM 26.2°F-3.2°C 19.0°F-7.2°C 74% Calm Calm 3.6 mph5.8 kmh 24.86 in841.9 mb 0.00 in0.0 mm 0.00 in0.0 mm 0.00 in0.0 mm
10:27 PM 26.2°F-3.2°C 19.0°F-7.2°C 74% Calm Calm 2.7 mph4.3 kmh 24.86 in841.9 mb 0.00 in0.0 mm 0.00 in0.0 mm 0.00 in0.0 mm
10:32 PM 26.4°F-3.1°C 19.0°F-7.2°C 73% Calm Calm 2.7 mph4.3 kmh 24.83 in840.8 mb 0.00 in0.0 mm 0.00 in0.0 mm 0.00 in0.0 mm
10:37 PM 26.4°F-3.1°C 19.0°F-7.2°C 73% Calm Calm 2.7 mph4.3 kmh 24.83 in840.8 mb 0.00 in0.0 mm 0.00 in0.0 mm 0.00 in0.0 mm
10:42 PM 26.2°F-3.2°C 18.1°F-7.7°C 71% Calm Calm -- 24.83 in840.8 mb 0.00 in0.0 mm 0.00 in0.0 mm 0.00 in0.0 mm
10:47 PM 26.4°F-3.1°C 18.3°F-7.6°C 71% Calm Calm 2.7 mph4.3 kmh 24.86 in841.9 mb 0.00 in0.0 mm 0.00 in0.0 mm 0.00 in0.0 mm
10:52 PM 26.8°F-2.9°C 18.0°F-7.8°C 69% Calm Calm -- 24.86 in841.9 mb 0.00 in0.0 mm 0.00 in0.0 mm 0.00 in0.0 mm
10:57 PM 26.8°F-2.9°C 17.6°F-8.0°C 68% Calm Calm -- 24.86 in841.9 mb 0.00 in0.0 mm 0.00 in0.0 mm 0.00 in0.0 mm
11:02 PM 27.1°F-2.7°C 16.9°F-8.4°C 65% Calm Calm -- 24.83 in840.8 mb 0.00 in0.0 mm 0.00 in0.0 mm 0.00 in0.0 mm
11:07 PM 27.1°F-2.7°C 16.5°F-8.6°C 64% Calm Calm 3.1 mph5.0 kmh 24.83 in840.8 mb 0.00 in0.0 mm 0.00 in0.0 mm 0.00 in0.0 mm
11:12 PM 27.1°F-2.7°C 16.2°F-8.8°C 63% Calm Calm 3.1 mph5.0 kmh 24.83 in840.8 mb 0.00 in0.0 mm 0.00 in0.0 mm 0.00 in0.0 mm
11:17 PM 27.1°F-2.7°C 15.8°F-9.0°C 62% Calm Calm 2.7 mph4.3 kmh 24.83 in840.8 mb 0.00 in0.0 mm 0.00 in0.0 mm 0.00 in0.0 mm
11:22 PM 27.0°F-2.8°C 15.3°F-9.3°C 61% Calm Calm 2.7 mph4.3 kmh 24.83 in840.8 mb 0.00 in0.0 mm 0.00 in0.0 mm 0.00 in0.0 mm
11:27 PM 27.3°F-2.6°C 16.7°F-8.5°C 64% 1.0 mph NNE1.6 kmh NNE 6.7 mph10.8 kmh 24.83 in840.8 mb 0.00 in0.0 mm 0.00 in0.0 mm 0.00 in0.0 mm
11:32 PM 27.1°F-2.7°C 16.5°F-8.6°C 64% 1.0 mph WSW1.6 kmh WSW 4.0 mph6.4 kmh 24.86 in841.9 mb 0.00 in0.0 mm 0.00 in0.0 mm 0.00 in0.0 mm
11:37 PM 27.1°F-2.7°C 16.5°F-8.6°C 64% Calm Calm 2.7 mph4.3 kmh 24.86 in841.9 mb 0.00 in0.0 mm 0.00 in0.0 mm 0.00 in0.0 mm
11:42 PM 27.3°F-2.6°C 17.1°F-8.3°C 65% 2.0 mph W3.2 kmh W 6.3 mph10.1 kmh 24.86 in841.9 mb 0.00 in0.0 mm 0.00 in0.0 mm 0.00 in0.0 mm
11:47 PM 27.5°F-2.5°C 17.6°F-8.0°C 66% 3.0 mph NW4.8 kmh NW 5.8 mph9.3 kmh 24.86 in841.9 mb 0.00 in0.0 mm 0.00 in0.0 mm 0.00 in0.0 mm
11:52 PM 27.5°F-2.5°C 18.3°F-7.6°C 68% 3.0 mph NW4.8 kmh NW 6.3 mph10.1 kmh 24.86 in841.9 mb 0.00 in0.0 mm 0.00 in0.0 mm 0.00 in0.0 mm
11:57 PM 27.3°F-2.6°C 18.9°F-7.3°C 70% 4.0 mph NW6.4 kmh NW 6.3 mph10.1 kmh 24.86 in841.9 mb 0.00 in0.0 mm 0.00 in0.0 mm 0.00 in0.0 mm